KAUM

Details ICAO KAUM
Name AUSTIN MUNI
Region United States
Timezone America/Chicago (UTC-6.0)
Plans Departing 34
Arriving 46
Stats Elevation 1,233 ft / 376 m (AMSL)
Location 43.662600° -92.932900°
Runways 1
Magnetic Variation 0.072° W
Sunrise 2019-12-12 13:37:15 UTC / 2019-12-12 07:37:15 Local
Sunset 2019-12-12 22:36:18 UTC / 2019-12-12 16:36:18 Local
Advertisement - Login to hide

Runways

ID Width Length Bearing (true/mag) Surface Threshold Overrun Markings Lighting
17 100 ft / 30 m 5,806 ft / 1,770 m 172.16° / 172.23° CONCRETE 0 ft / 0 m 0 ft / 0 m APP EDGE THRESHOLD REIL-OMNI
35 100 ft / 30 m 5,806 ft / 1,770 m 352.16° / 352.23° CONCRETE 0 ft / 0 m 0 ft / 0 m APP EDGE THRESHOLD MALSR REIL-OMNI

Map

Weather


0- 5 10 15 20 25 30 35+ Temperature / °C

Clouds and Precipitation
Forecast for 2019-12-12 12:00 UTC. Updated 7 minutes ago

Ground ~20,000 ft ~40,000 ft Winds

METAR

KAUM 120935Z AUTO 14011G17KT 10SM OVC050 M05/M08 A3011 RMK AO2

TAF

Not found

Frequencies

Unicom 122.70 MHz CTAF/UNICOM
Recorded 119.02 MHz AWOS 3
Approach 119.80 MHz ROCHESTER APP/DEP
Warning: Do not use this data for real-world aviation or navigation. No guarantee of current accuracy is given.